createdAt,value
2019-05-29T00:01:35.136Z,58.42
2019-05-29T00:04:06.059Z,58.41
2019-05-29T00:06:35.545Z,57.78
2019-05-29T00:09:06.395Z,57.51
2019-05-29T00:11:35.823Z,58.21
2019-05-29T00:14:19.714Z,58.66
2019-05-29T00:16:36.496Z,58.62
2019-05-29T00:19:06.938Z,58.04
2019-05-29T00:21:36.778Z,59.99
2019-05-29T00:24:06.340Z,59.04
2019-05-29T00:26:35.729Z,58.50
2019-05-29T00:29:05.667Z,59.42
2019-05-29T00:31:35.043Z,58.88
2019-05-29T00:34:04.491Z,59.11
2019-05-29T00:36:33.881Z,59.03
2019-05-29T00:39:04.221Z,59.41
2019-05-29T00:41:33.645Z,60.01
2019-05-29T00:44:03.092Z,59.66
2019-05-29T00:46:32.527Z,58.81
2019-05-29T00:49:01.897Z,59.12
2019-05-29T00:51:31.357Z,58.87
2019-05-29T00:54:00.703Z,60.23
2019-05-29T00:56:30.150Z,60.23
2019-05-29T00:58:59.501Z,60.76
2019-05-29T01:01:28.952Z,61.08
2019-05-29T01:03:58.358Z,61.23
2019-05-29T01:06:27.786Z,61.76
2019-05-29T01:08:57.159Z,62.17
2019-05-29T01:11:26.523Z,62.52
2019-05-29T01:13:55.890Z,62.43
2019-05-29T01:16:25.228Z,62.80
2019-05-29T01:18:56.227Z,62.89
2019-05-29T01:21:25.633Z,62.50
2019-05-29T01:23:55.048Z,62.69
2019-05-29T01:26:24.477Z,62.04
2019-05-29T01:28:53.832Z,62.46
2019-05-29T01:31:23.617Z,62.28
2019-05-29T01:33:53.080Z,62.28
2019-05-29T01:36:22.685Z,63.14
2019-05-29T01:38:52.098Z,63.14
2019-05-29T01:41:21.533Z,63.86
2019-05-29T01:43:50.891Z,62.69
2019-05-29T01:46:21.494Z,63.08
2019-05-29T01:48:50.845Z,63.46
2019-05-29T01:51:20.183Z,63.97
2019-05-29T01:53:49.604Z,63.92
2019-05-29T01:56:19.816Z,64.22
2019-05-29T01:58:49.273Z,63.72
2019-05-29T02:01:19.918Z,63.80
2019-05-29T02:03:49.513Z,65.15
2019-05-29T02:06:19.978Z,63.57
2019-05-29T02:08:49.435Z,64.21
2019-05-29T02:11:19.227Z,63.77
2019-05-29T02:13:48.641Z,64.94
2019-05-29T02:16:18.510Z,64.32
2019-05-29T02:18:47.959Z,64.90
2019-05-29T02:21:17.986Z,63.94
2019-05-29T02:23:47.445Z,64.90
2019-05-29T02:26:17.955Z,64.17
2019-05-29T02:28:47.594Z,64.16
2019-05-29T02:31:17.689Z,64.55
2019-05-29T02:33:48.117Z,64.37
2019-05-29T02:36:17.905Z,64.33
2019-05-29T02:38:47.351Z,65.70
2019-05-29T02:41:16.772Z,64.45
2019-05-29T02:43:46.132Z,64.50
2019-05-29T02:46:15.551Z,65.77
2019-05-29T02:48:44.922Z,65.96
2019-05-29T02:51:14.287Z,65.52
2019-05-29T02:53:43.647Z,66.25
2019-05-29T02:56:13.017Z,67.19
2019-05-29T02:58:42.393Z,65.63
2019-05-29T03:01:11.760Z,65.43
2019-05-29T03:03:41.105Z,65.37
2019-05-29T03:06:10.633Z,65.61
2019-05-29T03:08:40.170Z,65.79
2019-05-29T03:11:09.716Z,65.71
2019-05-29T03:13:39.157Z,65.75
2019-05-29T03:16:12.237Z,66.32
2019-05-29T03:18:39.589Z,65.18
2019-05-29T03:21:09.012Z,64.49
2019-05-29T03:23:38.435Z,64.91
2019-05-29T03:26:07.801Z,64.80
2019-05-29T03:28:38.257Z,65.50
2019-05-29T03:31:07.844Z,63.19
2019-05-29T03:33:44.891Z,62.81
2019-05-29T03:36:08.422Z,59.94
2019-05-29T03:38:38.601Z,58.96
2019-05-29T03:41:07.997Z,57.13
2019-05-29T03:43:38.794Z,56.16
2019-05-29T03:46:26.393Z,55.72
2019-05-29T03:48:39.380Z,55.10
2019-05-29T03:51:08.723Z,53.99
2019-05-29T03:53:38.561Z,52.97
2019-05-29T03:56:07.970Z,52.97
2019-05-29T03:58:37.900Z,51.65
2019-05-29T04:01:07.474Z,51.65
2019-05-29T04:03:38.036Z,51.71
2019-05-29T04:06:07.842Z,52.21
2019-05-29T04:08:38.399Z,53.93
2019-05-29T04:11:08.398Z,53.93
2019-05-29T04:13:38.797Z,53.50
2019-05-29T04:16:09.958Z,54.50
2019-05-29T04:18:40.774Z,55.85
2019-05-29T04:21:12.059Z,55.63
2019-05-29T04:23:43.063Z,55.71
2019-05-29T04:26:14.131Z,55.27
2019-05-29T04:28:43.854Z,55.23
2019-05-29T04:31:13.264Z,55.88
2019-05-29T04:33:42.719Z,55.16
2019-05-29T04:36:12.147Z,54.52
2019-05-29T04:38:41.520Z,54.44
2019-05-29T04:41:10.965Z,54.64
2019-05-29T04:43:40.345Z,54.82
2019-05-29T04:46:09.740Z,53.19
2019-05-29T04:48:40.357Z,53.77
2019-05-29T04:51:10.091Z,53.46
2019-05-29T04:53:39.949Z,53.53
2019-05-29T04:56:09.450Z,52.12
2019-05-29T04:58:39.119Z,52.20
2019-05-29T05:01:08.594Z,53.21
2019-05-29T05:03:39.130Z,54.01
2019-05-29T05:06:08.768Z,54.23
2019-05-29T05:08:39.523Z,52.17
2019-05-29T05:11:10.553Z,49.95
2019-05-29T05:13:39.995Z,49.97
2019-05-29T05:16:09.381Z,48.95
2019-05-29T05:18:40.043Z,48.66
2019-05-29T05:21:09.669Z,47.61
2019-05-29T05:23:40.307Z,46.67
2019-05-29T05:26:10.028Z,46.97
2019-05-29T05:28:42.187Z,46.97
2019-05-29T05:31:10.483Z,46.93
2019-05-29T05:33:41.035Z,46.93
2019-05-29T05:36:10.654Z,46.41
2019-05-29T05:38:41.159Z,46.26
2019-05-29T05:41:10.636Z,45.67
2019-05-29T05:43:41.337Z,45.87
2019-05-29T05:46:10.680Z,45.55
2019-05-29T05:48:41.310Z,45.55
2019-05-29T05:51:11.003Z,45.83
2019-05-29T05:53:40.204Z,46.06
2019-05-29T05:56:09.285Z,44.29
2019-05-29T05:58:39.824Z,43.56
2019-05-29T06:01:09.146Z,43.56
2019-05-29T06:03:38.214Z,42.79
2019-05-29T06:06:07.332Z,40.29
2019-05-29T06:08:36.423Z,41.14
2019-05-29T06:11:05.620Z,42.08
2019-05-29T06:13:34.681Z,41.01
2019-05-29T06:16:03.746Z,40.80
2019-05-29T06:18:32.831Z,40.23
2019-05-29T06:21:01.945Z,40.53
2019-05-29T06:23:31.048Z,40.08
2019-05-29T06:26:00.349Z,40.46
2019-05-29T06:28:29.414Z,41.09
2019-05-29T06:30:58.559Z,38.75
2019-05-29T06:33:27.608Z,38.52
2019-05-29T06:35:56.741Z,38.00
2019-05-29T06:38:25.802Z,37.57
2019-05-29T06:40:54.869Z,38.44
2019-05-29T06:43:25.494Z,37.83
2019-05-29T06:45:55.312Z,37.47
2019-05-29T06:48:42.333Z,37.15
2019-05-29T06:51:01.596Z,37.41
2019-05-29T06:53:30.715Z,36.94
2019-05-29T06:56:01.401Z,35.78
2019-05-29T06:58:30.646Z,37.64
2019-05-29T07:00:59.781Z,35.42
2019-05-29T07:03:28.875Z,36.10
2019-05-29T07:05:57.917Z,35.38
2019-05-29T07:08:38.024Z,35.53
2019-05-29T07:10:57.939Z,33.96
2019-05-29T07:13:27.007Z,35.09
2019-05-29T07:15:56.119Z,34.60
2019-05-29T07:18:25.250Z,33.89
2019-05-29T07:20:54.306Z,32.53
2019-05-29T07:23:23.390Z,33.55
2019-05-29T07:25:52.599Z,32.87
2019-05-29T07:28:21.656Z,32.42
2019-05-29T07:31:00.569Z,33.15
2019-05-29T07:33:21.614Z,32.92
2019-05-29T07:35:50.739Z,32.75
2019-05-29T07:38:19.786Z,31.92
2019-05-29T07:40:50.144Z,31.03
2019-05-29T07:43:19.295Z,30.69
2019-05-29T07:45:48.477Z,31.96
2019-05-29T07:48:17.839Z,31.03
2019-05-29T07:50:46.875Z,31.61
2019-05-29T07:53:15.955Z,32.52
2019-05-29T07:55:45.184Z,31.54
2019-05-29T07:58:14.240Z,30.77
2019-05-29T08:01:05.382Z,30.53
2019-05-29T08:03:14.775Z,32.77
2019-05-29T08:05:47.961Z,31.23
2019-05-29T08:08:14.649Z,31.90
2019-05-29T08:10:43.702Z,30.72
2019-05-29T08:13:12.833Z,30.92
2019-05-29T08:15:56.424Z,31.18
2019-05-29T08:18:12.698Z,32.92
2019-05-29T08:20:41.921Z,31.36
2019-05-29T08:23:11.090Z,32.38
2019-05-29T08:25:41.328Z,32.97
2019-05-29T08:28:10.582Z,31.98
2019-05-29T08:30:41.180Z,30.89
2019-05-29T08:33:10.415Z,29.63
2019-05-29T08:35:41.386Z,30.37
2019-05-29T08:38:10.268Z,28.80
2019-05-29T08:40:39.329Z,29.30
2019-05-29T08:43:08.400Z,29.22
2019-05-29T08:45:37.466Z,30.93
2019-05-29T08:48:06.528Z,30.98
2019-05-29T08:50:35.592Z,31.20
2019-05-29T08:53:04.849Z,31.32
2019-05-29T08:55:33.924Z,30.03
2019-05-29T08:58:02.976Z,28.24
2019-05-29T09:00:32.038Z,29.74
2019-05-29T09:03:01.102Z,28.58
2019-05-29T09:05:30.232Z,29.39
2019-05-29T09:07:59.329Z,29.29
2019-05-29T09:10:28.380Z,28.60
2019-05-29T09:13:04.717Z,27.77
2019-05-29T09:15:28.263Z,28.45
2019-05-29T09:17:57.331Z,28.32
2019-05-29T09:20:49.777Z,26.75
2019-05-29T09:22:57.292Z,27.40
2019-05-29T09:25:26.393Z,29.34
2019-05-29T09:27:55.474Z,28.55
2019-05-29T09:30:24.580Z,28.66
2019-05-29T09:32:53.639Z,28.10
2019-05-29T09:35:24.616Z,26.59
2019-05-29T09:37:53.633Z,25.89
2019-05-29T09:40:23.117Z,27.59
2019-05-29T09:42:52.359Z,27.49
2019-05-29T09:45:21.662Z,27.41
2019-05-29T09:47:50.741Z,25.93
2019-05-29T09:50:22.755Z,28.74
2019-05-29T09:52:50.778Z,27.07
2019-05-29T09:55:19.841Z,28.13
2019-05-29T09:57:48.971Z,25.98
2019-05-29T10:00:19.200Z,27.65
2019-05-29T10:02:48.348Z,27.20
2019-05-29T10:05:17.409Z,27.42
2019-05-29T10:07:46.528Z,28.07
2019-05-29T10:10:16.380Z,28.25
2019-05-29T10:12:45.508Z,27.89
2019-05-29T10:15:15.223Z,27.32
2019-05-29T10:17:44.422Z,27.24
2019-05-29T10:20:15.528Z,25.75
2019-05-29T10:22:44.577Z,25.88
2019-05-29T10:25:13.895Z,26.41
2019-05-29T10:27:43.020Z,28.14
2019-05-29T10:30:12.877Z,26.30
2019-05-29T10:32:42.684Z,26.02
2019-05-29T10:35:12.494Z,26.20
2019-05-29T10:37:42.746Z,25.81
2019-05-29T10:40:12.296Z,25.77
2019-05-29T10:42:41.402Z,24.96
2019-05-29T10:45:12.454Z,25.04
2019-05-29T10:47:41.547Z,24.45
2019-05-29T10:50:11.186Z,26.03
2019-05-29T10:52:40.345Z,25.78
2019-05-29T10:55:09.998Z,26.21
2019-05-29T10:57:39.161Z,26.00
2019-05-29T11:00:11.385Z,27.30
2019-05-29T11:02:40.550Z,26.92
2019-05-29T11:05:09.817Z,28.34
2019-05-29T11:07:38.897Z,25.81
2019-05-29T11:10:13.408Z,25.71
2019-05-29T11:12:41.393Z,26.05
2019-05-29T11:15:20.859Z,25.18
2019-05-29T11:17:41.628Z,24.93
2019-05-29T11:20:12.719Z,25.18
2019-05-29T11:22:41.770Z,24.93
2019-05-29T11:25:23.348Z,25.50
2019-05-29T11:27:41.912Z,26.13
2019-05-29T11:30:12.724Z,26.20
2019-05-29T11:32:41.937Z,26.59
2019-05-29T11:35:12.008Z,25.27
2019-05-29T11:37:41.059Z,26.59
2019-05-29T11:40:10.787Z,25.38
2019-05-29T11:42:39.840Z,25.36
2019-05-29T11:45:10.976Z,24.09
2019-05-29T11:47:40.067Z,25.52
2019-05-29T11:50:19.607Z,25.16
2019-05-29T11:52:44.609Z,25.00
2019-05-29T11:55:13.928Z,25.76
2019-05-29T11:57:43.050Z,24.07
2019-05-29T12:00:20.452Z,25.44
2019-05-29T12:02:45.455Z,24.29
2019-05-29T12:05:15.205Z,25.24
2019-05-29T12:07:44.281Z,24.90
2019-05-29T12:10:13.743Z,25.47
2019-05-29T12:12:42.902Z,24.25
2019-05-29T12:15:17.055Z,24.13
2019-05-29T12:17:45.094Z,22.98
2019-05-29T12:20:27.000Z,23.19
2019-05-29T12:23:11.405Z,25.03
2019-05-29T12:25:16.469Z,22.79
2019-05-29T12:27:45.598Z,23.64
2019-05-29T12:30:16.403Z,23.40
2019-05-29T12:32:46.110Z,24.70
2019-05-29T12:35:15.511Z,24.41
2019-05-29T12:37:44.554Z,24.39
2019-05-29T12:40:15.129Z,23.95
2019-05-29T12:42:45.151Z,25.31
2019-05-29T12:45:14.497Z,26.25
2019-05-29T12:47:43.567Z,24.42
2019-05-29T12:50:13.822Z,25.24
2019-05-29T12:52:43.001Z,24.97
2019-05-29T12:55:15.317Z,25.79
2019-05-29T12:57:44.357Z,25.37
2019-05-29T13:00:15.712Z,25.16
2019-05-29T13:02:44.855Z,25.04
2019-05-29T13:05:20.137Z,25.39
2019-05-29T13:07:45.496Z,24.59
2019-05-29T13:10:30.003Z,25.24
2019-05-29T13:12:48.064Z,24.12
2019-05-29T13:15:18.071Z,24.57
2019-05-29T13:17:47.155Z,24.05
2019-05-29T13:20:21.772Z,24.28
2019-05-29T13:22:48.463Z,24.85
2019-05-29T13:25:17.623Z,26.55
2019-05-29T13:27:46.689Z,26.87
2019-05-29T13:30:17.134Z,27.17
2019-05-29T13:32:46.319Z,27.03
2019-05-29T13:35:15.456Z,26.66
2019-05-29T13:37:44.539Z,26.45
2019-05-29T13:40:14.028Z,25.68
2019-05-29T13:42:43.089Z,25.43
2019-05-29T13:45:18.462Z,24.72
2019-05-29T13:47:44.853Z,25.03
2019-05-29T13:50:14.500Z,24.55
2019-05-29T13:52:43.624Z,25.36
2019-05-29T13:55:14.496Z,25.30
2019-05-29T13:57:43.645Z,24.89
2019-05-29T14:00:34.409Z,25.33
2019-05-29T14:02:46.256Z,24.47
2019-05-29T14:05:16.377Z,23.82
2019-05-29T14:07:45.451Z,25.04
2019-05-29T14:10:16.011Z,24.86
2019-05-29T14:12:45.090Z,25.12
2019-05-29T14:15:14.514Z,25.13
2019-05-29T14:17:43.602Z,24.98
2019-05-29T14:20:13.175Z,24.90
2019-05-29T14:22:42.212Z,26.05
2019-05-29T14:25:13.237Z,26.70
2019-05-29T14:27:42.433Z,27.15
2019-05-29T14:30:14.032Z,27.35
2019-05-29T14:32:43.331Z,27.99
2019-05-29T14:35:13.369Z,27.19
2019-05-29T14:37:42.575Z,28.09
2019-05-29T14:40:12.319Z,28.92
2019-05-29T14:42:41.388Z,29.44
2019-05-29T14:45:12.390Z,29.65
2019-05-29T14:47:41.746Z,30.36
2019-05-29T14:50:13.475Z,30.61
2019-05-29T14:52:42.566Z,30.25
2019-05-29T14:55:16.137Z,29.38
2019-05-29T14:57:42.882Z,29.35
2019-05-29T15:00:23.176Z,29.36
2019-05-29T15:02:44.887Z,29.71
2019-05-29T15:05:15.100Z,29.30
2019-05-29T15:07:44.308Z,29.64
2019-05-29T15:10:24.936Z,29.42
2019-05-29T15:12:44.962Z,30.34
2019-05-29T15:15:16.526Z,29.05
2019-05-29T15:17:45.637Z,29.58
2019-05-29T15:20:16.829Z,29.66
2019-05-29T15:22:46.132Z,30.07
2019-05-29T15:25:24.026Z,30.71
2019-05-29T15:27:48.924Z,30.78
2019-05-29T15:30:23.013Z,31.32
2019-05-29T15:32:49.438Z,31.70
2019-05-29T15:35:20.116Z,31.75
2019-05-29T15:37:49.406Z,32.12
2019-05-29T15:40:18.485Z,31.91
2019-05-29T15:42:47.610Z,32.12
2019-05-29T15:45:18.166Z,32.39
2019-05-29T15:47:47.488Z,32.82
2019-05-29T15:50:18.008Z,32.33
2019-05-29T15:52:47.207Z,32.88
2019-05-29T15:55:28.543Z,32.77
2019-05-29T15:57:47.410Z,33.20
2019-05-29T16:00:17.842Z,33.47
2019-05-29T16:02:48.839Z,33.40
2019-05-29T16:05:19.224Z,33.62
2019-05-29T16:07:48.508Z,34.13
2019-05-29T16:10:20.872Z,34.27
2019-05-29T16:12:49.897Z,34.11
2019-05-29T16:15:19.686Z,35.23
2019-05-29T16:17:48.941Z,34.99
2019-05-29T16:20:18.556Z,35.06
2019-05-29T16:22:47.919Z,35.42
2019-05-29T16:25:17.531Z,35.61
2019-05-29T16:27:46.721Z,35.26
2019-05-29T16:30:18.127Z,35.44
2019-05-29T16:32:47.255Z,35.34
2019-05-29T16:35:17.221Z,35.23
2019-05-29T16:37:46.338Z,35.53
2019-05-29T16:40:18.160Z,36.10
2019-05-29T16:42:47.465Z,36.77
2019-05-29T16:45:18.319Z,37.08
2019-05-29T16:47:47.654Z,37.26
2019-05-29T16:50:19.392Z,39.79
2019-05-29T16:52:48.935Z,41.12
2019-05-29T16:55:19.391Z,44.18
2019-05-29T16:57:48.715Z,43.55
2019-05-29T17:00:19.874Z,47.92
2019-05-29T17:02:48.995Z,53.61
2019-05-29T17:05:18.302Z,51.16
2019-05-29T17:07:47.394Z,49.86
2019-05-29T17:10:16.628Z,52.94
2019-05-29T17:12:45.767Z,53.73
2019-05-29T17:15:17.116Z,51.13
2019-05-29T17:17:46.491Z,55.52
2019-05-29T17:20:17.184Z,53.42
2019-05-29T17:22:46.332Z,58.13
2019-05-29T17:25:16.722Z,57.77
2019-05-29T17:27:45.996Z,61.10
2019-05-29T17:30:18.821Z,58.40
2019-05-29T17:32:48.090Z,59.44
2019-05-29T17:35:17.367Z,61.32
2019-05-29T17:37:46.489Z,62.39
2019-05-29T17:40:16.920Z,59.06
2019-05-29T17:42:46.175Z,59.06
2019-05-29T17:45:19.528Z,57.48
2019-05-29T17:47:46.673Z,56.11
2019-05-29T17:50:19.876Z,55.10
2019-05-29T17:52:46.797Z,58.04
2019-05-29T17:55:19.961Z,57.10
2019-05-29T17:57:49.523Z,57.10
2019-05-29T18:00:20.749Z,60.41
2019-05-29T18:02:52.378Z,57.68
2019-05-29T18:05:20.908Z,57.68
2019-05-29T18:07:50.075Z,56.47
2019-05-29T18:10:22.474Z,55.34
2019-05-29T18:12:52.190Z,57.79
2019-05-29T18:15:21.867Z,58.71
2019-05-29T18:17:51.317Z,60.21
2019-05-29T18:20:21.703Z,58.41
2019-05-29T18:22:51.206Z,60.37
2019-05-29T18:25:21.811Z,58.24
2019-05-29T18:27:51.367Z,59.74
2019-05-29T18:30:20.734Z,59.98
2019-05-29T18:32:49.802Z,59.98
2019-05-29T18:35:19.111Z,60.93
2019-05-29T18:37:48.630Z,63.07
2019-05-29T18:40:20.229Z,63.15
2019-05-29T18:42:49.795Z,60.89
2019-05-29T18:45:22.393Z,60.89
2019-05-29T18:47:50.411Z,62.86
2019-05-29T18:50:19.863Z,62.86
2019-05-29T18:52:49.307Z,63.88
2019-05-29T18:55:19.008Z,64.27
2019-05-29T18:57:48.455Z,64.98
2019-05-29T19:00:21.169Z,65.89
2019-05-29T19:02:50.741Z,65.89
2019-05-29T19:05:21.460Z,63.81
2019-05-29T19:07:51.019Z,63.81
2019-05-29T19:10:21.601Z,62.55
2019-05-29T19:12:51.642Z,65.18
2019-05-29T19:15:21.911Z,65.18
2019-05-29T19:17:51.413Z,65.29
2019-05-29T19:20:22.174Z,65.18
2019-05-29T19:22:51.688Z,67.12
2019-05-29T19:25:22.542Z,67.70
2019-05-29T19:27:52.557Z,68.19
2019-05-29T19:30:23.046Z,68.19
2019-05-29T19:32:52.526Z,64.66
2019-05-29T19:35:23.384Z,65.39
2019-05-29T19:37:53.486Z,65.39
2019-05-29T19:40:24.035Z,65.28
2019-05-29T19:42:54.694Z,65.16
2019-05-29T19:45:24.696Z,64.62
2019-05-29T19:47:54.182Z,64.62
2019-05-29T19:50:24.675Z,64.44
2019-05-29T19:52:54.098Z,65.56
2019-05-29T19:55:23.534Z,65.56
2019-05-29T19:57:56.525Z,66.21
2019-05-29T20:00:24.170Z,65.80
2019-05-29T20:02:53.321Z,65.95
2019-05-29T20:05:22.788Z,65.95
2019-05-29T20:07:52.237Z,66.68
2019-05-29T20:10:21.648Z,67.23
2019-05-29T20:12:51.034Z,67.80
2019-05-29T20:15:20.585Z,67.80
2019-05-29T20:17:50.020Z,67.61
2019-05-29T20:20:19.540Z,68.70
2019-05-29T20:22:48.985Z,68.70
2019-05-29T20:25:18.436Z,69.25
2019-05-29T20:27:47.798Z,69.33
2019-05-29T20:30:18.745Z,69.81
2019-05-29T20:32:48.377Z,69.99
2019-05-29T20:35:18.062Z,69.55
2019-05-29T20:37:47.459Z,69.81
2019-05-29T20:40:17.141Z,69.62
2019-05-29T20:42:46.492Z,69.50
2019-05-29T20:45:17.026Z,69.89
2019-05-29T20:47:46.387Z,69.87
2019-05-29T20:50:15.927Z,71.18
2019-05-29T20:52:45.309Z,71.19
2019-05-29T20:55:14.928Z,71.58
2019-05-29T20:57:44.361Z,71.56
2019-05-29T21:00:16.590Z,71.84
2019-05-29T21:02:46.011Z,72.44
2019-05-29T21:05:15.864Z,72.99
2019-05-29T21:07:45.266Z,73.02
2019-05-29T21:10:14.840Z,72.79
2019-05-29T21:12:47.467Z,72.82
2019-05-29T21:15:15.491Z,72.86
2019-05-29T21:17:44.868Z,73.37
2019-05-29T21:20:14.539Z,73.18
2019-05-29T21:22:44.955Z,73.63
2019-05-29T21:25:18.922Z,73.73
2019-05-29T21:27:49.196Z,73.55
2019-05-29T21:30:19.874Z,73.69
2019-05-29T21:32:49.278Z,73.30
2019-05-29T21:35:18.650Z,73.49
2019-05-29T21:37:48.613Z,73.71
2019-05-29T21:40:18.939Z,74.01
2019-05-29T21:42:48.309Z,73.88
2019-05-29T21:45:17.776Z,73.72
2019-05-29T21:47:47.333Z,74.14
2019-05-29T21:50:16.688Z,74.30
2019-05-29T21:52:46.086Z,74.04
2019-05-29T21:55:15.724Z,74.11
2019-05-29T21:57:48.368Z,74.21
2019-05-29T22:00:22.311Z,74.49
2019-05-29T22:02:51.835Z,74.36
2019-05-29T22:05:21.784Z,74.67
2019-05-29T22:07:51.246Z,74.99
2019-05-29T22:10:20.684Z,74.18
2019-05-29T22:12:50.378Z,74.55
2019-05-29T22:15:19.843Z,74.12
2019-05-29T22:17:49.232Z,74.29
2019-05-29T22:20:18.607Z,74.49
2019-05-29T22:22:48.044Z,74.64
2019-05-29T22:25:17.462Z,73.78
2019-05-29T22:27:46.920Z,73.43
2019-05-29T22:30:16.449Z,72.95
2019-05-29T22:32:45.822Z,72.24
2019-05-29T22:35:16.355Z,71.83
2019-05-29T22:37:45.792Z,71.26
2019-05-29T22:40:15.272Z,70.43
2019-05-29T22:42:44.698Z,70.41
2019-05-29T22:45:14.091Z,70.19
2019-05-29T22:47:43.548Z,70.12
2019-05-29T22:50:13.327Z,69.92
2019-05-29T22:52:42.713Z,69.98
2019-05-29T22:55:12.188Z,69.85
2019-05-29T22:57:41.637Z,70.04
2019-05-29T23:00:12.808Z,70.66
2019-05-29T23:02:42.249Z,70.41
2019-05-29T23:05:11.660Z,70.76
2019-05-29T23:07:41.053Z,69.94
2019-05-29T23:10:11.468Z,69.76
2019-05-29T23:12:40.845Z,70.14
2019-05-29T23:15:10.407Z,70.19
2019-05-29T23:17:39.782Z,70.49
2019-05-29T23:20:09.312Z,70.58
2019-05-29T23:22:38.715Z,71.15
2019-05-29T23:25:08.299Z,70.73
2019-05-29T23:27:37.747Z,71.01
2019-05-29T23:30:11.936Z,71.37
2019-05-29T23:32:41.311Z,70.45
2019-05-29T23:35:10.772Z,70.48
2019-05-29T23:37:40.280Z,70.20
2019-05-29T23:40:10.159Z,70.24
2019-05-29T23:42:39.537Z,70.27
2019-05-29T23:45:08.892Z,69.91
2019-05-29T23:47:38.333Z,69.77
2019-05-29T23:50:08.063Z,69.80
2019-05-29T23:52:37.815Z,70.02
2019-05-29T23:55:10.236Z,69.51
2019-05-29T23:57:39.596Z,69.55
